createdAt,value
2022-08-07T00:00:25.405Z,7.90
2022-08-07T00:02:53.697Z,8.02
2022-08-07T00:05:20.768Z,9.30
2022-08-07T00:07:59.730Z,10.30
2022-08-07T00:10:31.083Z,11.68
2022-08-07T00:13:23.562Z,11.68
2022-08-07T00:15:51.844Z,11.90
2022-08-07T00:18:24.351Z,11.95
2022-08-07T00:20:54.682Z,13.82
2022-08-07T00:23:21.660Z,13.30
2022-08-07T00:25:58.922Z,13.98
2022-08-07T00:28:33.673Z,13.25
2022-08-07T00:31:12.438Z,13.48
2022-08-07T00:33:40.345Z,13.30
2022-08-07T00:36:08.472Z,12.57
2022-08-07T00:38:36.744Z,12.50
2022-08-07T00:41:09.910Z,12.13
2022-08-07T00:44:01.181Z,11.02
2022-08-07T00:46:30.005Z,12.15
2022-08-07T00:49:02.178Z,9.88
2022-08-07T00:51:57.403Z,10.02
2022-08-07T00:54:16.731Z,9.98
2022-08-07T00:56:49.555Z,9.68
2022-08-07T00:59:17.334Z,10.50
2022-08-07T01:01:48.399Z,9.77
2022-08-07T01:04:21.682Z,9.48
2022-08-07T01:06:51.464Z,9.70
2022-08-07T01:10:03.860Z,10.13
2022-08-07T01:12:29.057Z,9.25
2022-08-07T01:14:57.130Z,10.40
2022-08-07T01:17:30.164Z,9.63
2022-08-07T01:20:08.181Z,9.55
2022-08-07T01:22:37.855Z,9.80
2022-08-07T01:25:53.997Z,9.63
2022-08-07T01:28:03.621Z,9.57
2022-08-07T01:30:32.290Z,10.00
2022-08-07T01:32:59.319Z,9.30
2022-08-07T01:35:36.871Z,9.30
2022-08-07T01:38:24.846Z,9.52
2022-08-07T01:41:02.598Z,10.02
2022-08-07T01:43:38.048Z,9.20
2022-08-07T01:46:08.386Z,8.98
2022-08-07T01:48:46.577Z,9.35
2022-08-07T01:52:02.706Z,8.90
2022-08-07T01:54:19.267Z,8.77
2022-08-07T01:57:08.279Z,8.75
2022-08-07T01:59:43.762Z,8.85
2022-08-07T02:03:12.355Z,8.70
2022-08-07T02:05:43.394Z,8.02
2022-08-07T02:08:20.587Z,8.82
2022-08-07T02:10:55.275Z,8.98
2022-08-07T02:13:57.218Z,8.55
2022-08-07T02:16:19.911Z,8.80
2022-08-07T02:18:55.964Z,8.40
2022-08-07T02:21:24.930Z,8.75
2022-08-07T02:23:53.257Z,8.85
2022-08-07T02:26:33.885Z,9.43
2022-08-07T02:29:07.529Z,9.10
2022-08-07T02:31:41.926Z,8.38
2022-08-07T02:34:11.181Z,8.93
2022-08-07T02:36:49.488Z,8.88
2022-08-07T02:39:42.431Z,9.13
2022-08-07T02:42:10.334Z,9.25
2022-08-07T02:44:48.130Z,9.57
2022-08-07T02:47:19.747Z,9.45
2022-08-07T02:49:58.701Z,10.55
2022-08-07T02:52:34.361Z,9.90
2022-08-07T02:55:41.855Z,9.63
2022-08-07T02:58:10.398Z,10.10
2022-08-07T03:00:41.631Z,10.68
2022-08-07T03:03:21.159Z,9.45
2022-08-07T03:05:53.836Z,9.65
2022-08-07T03:08:26.820Z,10.43
2022-08-07T03:10:58.152Z,10.70
2022-08-07T03:13:38.746Z,8.88
2022-08-07T03:16:16.779Z,9.45
2022-08-07T03:18:50.178Z,8.95
2022-08-07T03:21:19.078Z,8.93
2022-08-07T03:24:18.452Z,9.32
2022-08-07T03:26:36.007Z,9.60
2022-08-07T03:29:15.184Z,9.38
2022-08-07T03:31:49.839Z,9.27
2022-08-07T03:34:22.134Z,9.23
2022-08-07T03:36:53.638Z,9.85
2022-08-07T03:39:59.005Z,9.38
2022-08-07T03:42:11.825Z,9.30
2022-08-07T03:44:39.960Z,8.70
2022-08-07T03:47:13.044Z,8.73
2022-08-07T03:49:40.558Z,9.48
2022-08-07T03:52:22.373Z,9.20
2022-08-07T03:54:55.275Z,9.10
2022-08-07T03:58:33.677Z,8.70
2022-08-07T04:00:14.810Z,8.05
2022-08-07T04:02:49.366Z,7.60
2022-08-07T04:05:39.709Z,8.23
2022-08-07T04:08:15.989Z,8.05
2022-08-07T04:10:54.260Z,8.43
2022-08-07T04:14:10.970Z,8.13
2022-08-07T04:16:31.472Z,8.20
2022-08-07T04:19:04.307Z,7.63
2022-08-07T04:21:39.652Z,8.52
2022-08-07T04:24:34.308Z,8.60
2022-08-07T04:27:25.442Z,8.13
2022-08-07T04:30:02.261Z,7.65
2022-08-07T04:32:44.942Z,7.50
2022-08-07T04:35:16.346Z,8.05
2022-08-07T04:38:04.655Z,7.85
2022-08-07T04:40:32.705Z,8.02
2022-08-07T04:43:01.964Z,8.05
2022-08-07T04:46:00.931Z,7.68
2022-08-07T04:48:59.326Z,7.40
2022-08-07T04:51:32.629Z,7.65
2022-08-07T04:54:22.656Z,7.88
2022-08-07T04:58:10.520Z,8.05
2022-08-07T05:00:11.430Z,8.25
2022-08-07T05:03:31.163Z,7.70
2022-08-07T05:06:19.619Z,7.55
2022-08-07T05:09:02.183Z,8.32
2022-08-07T05:11:57.578Z,9.88
2022-08-07T05:14:54.958Z,10.20
2022-08-07T05:17:52.577Z,9.57
2022-08-07T05:20:24.948Z,9.98
2022-08-07T05:22:57.975Z,10.52
2022-08-07T05:25:54.477Z,10.38
2022-08-07T05:28:22.656Z,10.93
2022-08-07T05:30:56.788Z,10.07
2022-08-07T05:33:28.313Z,10.70
2022-08-07T05:35:56.171Z,10.57
2022-08-07T05:39:00.263Z,11.35
2022-08-07T05:41:15.871Z,10.13
2022-08-07T05:44:08.173Z,10.95
2022-08-07T05:46:38.107Z,11.32
2022-08-07T05:49:11.790Z,10.70
2022-08-07T05:51:43.499Z,11.85
2022-08-07T05:54:31.355Z,10.82
2022-08-07T05:57:04.453Z,10.18
2022-08-07T05:59:46.614Z,11.98
2022-08-07T06:02:29.085Z,10.95
2022-08-07T06:05:03.470Z,11.07
2022-08-07T06:08:13.569Z,10.35
2022-08-07T06:10:18.926Z,9.15
2022-08-07T06:12:48.540Z,10.68
2022-08-07T06:15:19.993Z,10.40
2022-08-07T06:17:53.480Z,10.80
2022-08-07T06:20:50.057Z,9.98
2022-08-07T06:23:46.019Z,10.70
2022-08-07T06:25:59.807Z,9.25
2022-08-07T06:28:27.198Z,9.68
2022-08-07T06:30:56.544Z,9.30
2022-08-07T06:33:26.605Z,9.95
2022-08-07T06:36:11.821Z,9.98
2022-08-07T06:38:51.388Z,9.05
2022-08-07T06:42:02.477Z,9.15
2022-08-07T06:44:46.006Z,8.63
2022-08-07T06:47:18.819Z,7.57
2022-08-07T06:49:52.172Z,7.85
2022-08-07T06:52:35.590Z,7.60
2022-08-07T06:55:31.489Z,8.00
2022-08-07T06:58:04.252Z,6.72
2022-08-07T07:00:38.141Z,6.82
2022-08-07T07:03:08.732Z,5.88
2022-08-07T07:06:02.385Z,6.03
2022-08-07T07:08:27.283Z,5.55
2022-08-07T07:10:56.889Z,5.00
2022-08-07T07:13:56.721Z,5.80
2022-08-07T07:16:33.829Z,5.32
2022-08-07T07:19:54.463Z,4.85
2022-08-07T07:22:05.071Z,4.93
2022-08-07T07:24:43.127Z,4.93
2022-08-07T07:27:35.592Z,4.68
2022-08-07T07:30:20.800Z,5.05
2022-08-07T07:33:01.404Z,4.75
2022-08-07T07:35:33.494Z,5.20
2022-08-07T07:38:04.862Z,4.85
2022-08-07T07:40:34.421Z,4.68
2022-08-07T07:43:15.476Z,5.25
2022-08-07T07:46:38.264Z,5.20
2022-08-07T07:48:36.506Z,5.35
2022-08-07T07:51:08.116Z,5.03
2022-08-07T07:53:50.404Z,5.03
2022-08-07T07:56:30.435Z,4.75
2022-08-07T07:59:00.460Z,5.85
2022-08-07T08:02:03.732Z,4.25
2022-08-07T08:04:18.380Z,5.15
2022-08-07T08:06:52.273Z,5.20
2022-08-07T08:09:23.486Z,5.00
2022-08-07T08:12:02.886Z,5.00
2022-08-07T08:14:36.379Z,4.97
2022-08-07T08:17:41.194Z,5.10
2022-08-07T08:20:17.643Z,5.15
2022-08-07T08:23:08.181Z,5.20
2022-08-07T08:25:56.569Z,5.07
2022-08-07T08:28:37.901Z,4.57
2022-08-07T08:31:15.626Z,4.65
2022-08-07T08:33:49.750Z,4.10
2022-08-07T08:36:29.641Z,4.25
2022-08-07T08:38:59.860Z,4.22
2022-08-07T08:41:57.919Z,3.88
2022-08-07T08:44:44.262Z,3.95
2022-08-07T08:47:34.389Z,4.18
2022-08-07T08:50:35.285Z,3.95
2022-08-07T08:53:19.693Z,4.50
2022-08-07T08:56:01.295Z,3.80
2022-08-07T08:58:59.754Z,3.95
2022-08-07T09:01:58.457Z,4.22
2022-08-07T09:04:44.523Z,4.00
2022-08-07T09:07:23.224Z,4.43
2022-08-07T09:10:14.461Z,4.07
2022-08-07T09:12:53.354Z,4.00
2022-08-07T09:16:25.229Z,4.15
2022-08-07T09:19:03.462Z,3.58
2022-08-07T09:22:10.294Z,4.00
2022-08-07T09:24:59.417Z,4.13
2022-08-07T09:27:59.462Z,4.18
2022-08-07T09:30:35.014Z,3.88
2022-08-07T09:33:16.558Z,4.70
2022-08-07T09:36:11.743Z,4.50
2022-08-07T09:38:57.750Z,4.55
2022-08-07T09:42:03.023Z,4.30
2022-08-07T09:47:26.311Z,4.38
2022-08-07T09:48:08.810Z,4.82
2022-08-07T09:50:55.864Z,4.38
2022-08-07T09:53:26.039Z,4.97
2022-08-07T09:56:46.991Z,4.55
2022-08-07T09:59:44.670Z,5.18
2022-08-07T10:02:24.563Z,4.57
2022-08-07T10:05:29.721Z,4.80
2022-08-07T10:08:35.197Z,4.45
2022-08-07T10:12:00.135Z,4.32
2022-08-07T10:14:30.483Z,4.32
2022-08-07T10:17:22.646Z,4.82
2022-08-07T10:20:31.679Z,5.25
2022-08-07T10:23:17.073Z,3.67
2022-08-07T10:26:33.344Z,3.50
2022-08-07T10:29:34.950Z,3.40
2022-08-07T10:32:36.812Z,4.00
2022-08-07T10:35:55.699Z,4.03
2022-08-07T10:38:35.955Z,4.38
2022-08-07T10:41:46.605Z,4.30
2022-08-07T10:44:33.814Z,4.43
2022-08-07T10:47:18.767Z,4.03
2022-08-07T10:50:10.762Z,3.40
2022-08-07T10:52:58.834Z,2.70
2022-08-07T10:56:02.154Z,2.40
2022-08-07T10:58:59.433Z,3.03
2022-08-07T11:01:51.007Z,3.00
2022-08-07T11:05:00.080Z,2.58
2022-08-07T11:08:02.682Z,2.58
2022-08-07T11:10:52.294Z,2.60
2022-08-07T11:14:42.016Z,2.53
2022-08-07T11:17:07.389Z,2.15
2022-08-07T11:20:03.648Z,2.70
2022-08-07T11:22:49.006Z,2.40
2022-08-07T11:25:25.663Z,2.30
2022-08-07T11:28:04.287Z,2.03
2022-08-07T11:30:42.594Z,2.10
2022-08-07T11:33:59.393Z,2.13
2022-08-07T11:36:16.612Z,2.38
2022-08-07T11:39:19.721Z,2.08
2022-08-07T11:42:03.327Z,2.67
2022-08-07T11:44:51.962Z,2.60
2022-08-07T11:47:56.311Z,3.15
2022-08-07T11:50:44.238Z,2.33
2022-08-07T11:54:11.476Z,2.20
2022-08-07T11:56:59.232Z,2.80
2022-08-07T12:00:10.084Z,2.83
2022-08-07T12:02:55.583Z,3.03
2022-08-07T12:06:01.300Z,2.40
2022-08-07T12:08:52.627Z,2.72
2022-08-07T12:11:32.427Z,2.95
2022-08-07T12:14:08.509Z,3.00
2022-08-07T12:16:42.434Z,3.10
2022-08-07T12:20:03.311Z,3.08
2022-08-07T12:22:55.883Z,3.05
2022-08-07T12:26:23.344Z,2.80
2022-08-07T12:29:15.767Z,2.50
2022-08-07T12:32:03.813Z,2.40
2022-08-07T12:34:34.479Z,2.13
2022-08-07T12:37:08.768Z,2.50
2022-08-07T12:39:50.949Z,2.17
2022-08-07T12:42:27.189Z,2.22
2022-08-07T12:44:57.782Z,2.10
2022-08-07T12:48:13.222Z,2.10
2022-08-07T12:51:18.819Z,2.00
2022-08-07T12:54:02.714Z,2.22
2022-08-07T12:56:51.474Z,2.85
2022-08-07T12:59:30.497Z,2.30
2022-08-07T13:02:33.158Z,2.60
2022-08-07T13:06:04.755Z,2.60
2022-08-07T13:08:43.671Z,2.55
2022-08-07T13:12:02.742Z,2.70
2022-08-07T13:14:58.953Z,2.70
2022-08-07T13:17:42.718Z,2.63
2022-08-07T13:20:46.516Z,2.70
2022-08-07T13:24:01.751Z,2.88
2022-08-07T13:26:46.430Z,3.25
2022-08-07T13:29:52.302Z,2.95
2022-08-07T13:32:32.101Z,3.05
2022-08-07T13:35:08.410Z,2.80
2022-08-07T13:37:59.188Z,3.20
2022-08-07T13:40:46.843Z,3.50
2022-08-07T13:43:17.218Z,3.35
2022-08-07T13:46:11.286Z,3.20
2022-08-07T13:48:51.884Z,3.00
2022-08-07T13:51:28.180Z,3.00
2022-08-07T13:54:22.634Z,3.15
2022-08-07T13:56:59.458Z,3.20
2022-08-07T13:59:33.166Z,2.85
2022-08-07T14:02:14.996Z,3.33
2022-08-07T14:04:54.499Z,3.05
2022-08-07T14:07:24.402Z,3.33
2022-08-07T14:10:17.420Z,3.40
2022-08-07T14:12:58.515Z,3.10
2022-08-07T14:15:28.319Z,3.33
2022-08-07T14:18:24.238Z,3.22
2022-08-07T14:21:08.170Z,2.92
2022-08-07T14:24:01.855Z,3.50
2022-08-07T14:26:39.191Z,3.40
2022-08-07T14:30:06.395Z,3.05
2022-08-07T14:32:10.159Z,3.42
2022-08-07T14:34:46.200Z,3.45
2022-08-07T14:37:16.836Z,3.65
2022-08-07T14:40:16.469Z,3.60
2022-08-07T14:42:35.605Z,3.75
2022-08-07T14:45:25.483Z,3.22
2022-08-07T14:51:06.078Z,3.60
2022-08-07T14:56:33.199Z,3.13
2022-08-07T15:01:58.679Z,3.15
2022-08-07T15:04:26.139Z,2.60
2022-08-07T15:06:56.975Z,3.40
2022-08-07T15:09:57.608Z,3.17
2022-08-07T15:12:26.173Z,3.17
2022-08-07T15:15:09.117Z,3.38
2022-08-07T15:18:02.700Z,2.78
2022-08-07T15:20:38.568Z,2.95
2022-08-07T15:25:15.128Z,3.20
2022-08-07T15:31:57.647Z,3.08
2022-08-07T15:34:33.644Z,3.00
2022-08-07T15:37:06.854Z,2.97
2022-08-07T15:39:56.619Z,2.95
2022-08-07T15:42:47.845Z,3.60
2022-08-07T15:45:20.818Z,3.10
2022-08-07T15:48:13.000Z,3.08
2022-08-07T15:51:08.091Z,2.95
2022-08-07T15:53:52.183Z,2.90
2022-08-07T15:56:24.661Z,3.25
2022-08-07T15:58:59.350Z,3.42
2022-08-07T16:01:38.443Z,3.33
2022-08-07T16:04:15.300Z,3.38
2022-08-07T16:06:59.236Z,3.30
2022-08-07T16:09:42.211Z,3.38
2022-08-07T16:12:39.084Z,3.28
2022-08-07T16:15:55.209Z,3.50
2022-08-07T16:18:43.471Z,3.35
2022-08-07T16:22:19.244Z,3.42
2022-08-07T16:25:23.063Z,3.13
2022-08-07T16:29:18.359Z,3.03
2022-08-07T16:31:57.205Z,3.28
2022-08-07T16:34:45.356Z,3.60
2022-08-07T16:38:04.939Z,3.40
2022-08-07T16:40:34.304Z,3.42
2022-08-07T16:43:19.117Z,3.43
2022-08-07T16:50:26.593Z,3.13
2022-08-07T16:53:55.637Z,3.35
2022-08-07T16:56:25.871Z,3.20
2022-08-07T16:59:10.661Z,3.33
2022-08-07T17:01:56.669Z,2.88
2022-08-07T17:04:32.516Z,2.95
2022-08-07T17:07:08.072Z,2.78
2022-08-07T17:10:08.153Z,2.70
2022-08-07T17:12:47.491Z,2.67
2022-08-07T17:15:15.689Z,3.50
2022-08-07T17:17:48.535Z,3.05
2022-08-07T17:20:41.265Z,3.28
2022-08-07T17:23:31.990Z,2.70
2022-08-07T17:26:24.147Z,3.45
2022-08-07T17:30:14.721Z,2.88
2022-08-07T17:32:31.155Z,3.35
2022-08-07T17:35:50.002Z,3.10
2022-08-07T17:38:33.414Z,2.47
2022-08-07T17:42:02.296Z,2.80
2022-08-07T17:44:33.873Z,2.78
2022-08-07T17:47:16.922Z,3.00
2022-08-07T17:49:59.155Z,2.80
2022-08-07T17:52:31.427Z,2.80
2022-08-07T17:55:09.244Z,2.75
2022-08-07T17:58:13.547Z,2.95
2022-08-07T18:00:59.097Z,2.65
2022-08-07T18:04:04.537Z,3.05
2022-08-07T18:06:43.565Z,2.70
2022-08-07T18:09:18.844Z,2.88
2022-08-07T18:12:28.591Z,2.78
2022-08-07T18:15:08.636Z,2.60
2022-08-07T18:18:46.422Z,2.65
2022-08-07T18:21:06.522Z,2.80
2022-08-07T18:23:58.316Z,2.90
2022-08-07T18:26:38.566Z,3.15
2022-08-07T18:30:04.208Z,2.42
2022-08-07T18:32:39.240Z,2.70
2022-08-07T18:35:21.733Z,3.05
2022-08-07T18:38:57.602Z,3.22
2022-08-07T18:41:16.744Z,2.63
2022-08-07T18:43:48.965Z,2.83
2022-08-07T18:47:08.568Z,3.03
2022-08-07T18:50:30.760Z,2.90
2022-08-07T18:52:53.271Z,3.20
2022-08-07T18:55:57.325Z,3.30
2022-08-07T18:59:01.626Z,2.80
2022-08-07T19:02:18.291Z,2.95
2022-08-07T19:04:56.228Z,2.95
2022-08-07T19:07:59.296Z,2.92
2022-08-07T19:10:49.429Z,2.83
2022-08-07T19:13:37.761Z,3.15
2022-08-07T19:17:01.473Z,3.17
2022-08-07T19:19:41.169Z,3.25
2022-08-07T19:22:18.433Z,3.15
2022-08-07T19:24:58.506Z,3.45
2022-08-07T19:28:58.533Z,3.33
2022-08-07T19:31:05.817Z,3.53
2022-08-07T19:33:15.606Z,3.85
2022-08-07T19:35:53.599Z,3.35
2022-08-07T19:38:21.541Z,3.53
2022-08-07T19:40:51.843Z,4.13
2022-08-07T19:43:49.060Z,3.38
2022-08-07T19:46:10.927Z,3.95
2022-08-07T19:48:42.133Z,3.92
2022-08-07T19:51:19.366Z,3.95
2022-08-07T19:54:35.609Z,4.22
2022-08-07T19:57:52.006Z,3.42
2022-08-07T19:59:39.917Z,3.97
2022-08-07T20:02:19.739Z,4.18
2022-08-07T20:04:57.017Z,4.25
2022-08-07T20:07:47.135Z,3.83
2022-08-07T20:10:36.615Z,4.07
2022-08-07T20:13:22.687Z,3.90
2022-08-07T20:15:52.220Z,4.05
2022-08-07T20:18:32.780Z,3.90
2022-08-07T20:21:02.164Z,4.05
2022-08-07T20:23:41.069Z,3.97
2022-08-07T20:26:10.842Z,4.00
2022-08-07T20:28:40.029Z,4.00
2022-08-07T20:31:21.892Z,4.63
2022-08-07T20:33:56.463Z,3.88
2022-08-07T20:36:26.553Z,4.70
2022-08-07T20:39:00.810Z,3.63
2022-08-07T20:41:41.045Z,4.75
2022-08-07T20:44:12.465Z,4.50
2022-08-07T20:46:44.278Z,4.47
2022-08-07T20:49:57.799Z,4.60
2022-08-07T20:52:09.360Z,4.97
2022-08-07T20:54:53.292Z,4.80
2022-08-07T20:57:24.877Z,4.40
2022-08-07T21:00:06.971Z,4.35
2022-08-07T21:03:00.613Z,4.65
2022-08-07T21:05:51.517Z,4.90
2022-08-07T21:08:39.227Z,4.35
2022-08-07T21:11:14.459Z,4.40
2022-08-07T21:14:16.057Z,4.60
2022-08-07T21:16:56.286Z,4.97
2022-08-07T21:19:51.390Z,4.60
2022-08-07T21:22:25.590Z,5.00
2022-08-07T21:25:12.140Z,5.00
2022-08-07T21:27:47.450Z,4.80
2022-08-07T21:30:17.783Z,4.50
2022-08-07T21:33:11.611Z,4.47
2022-08-07T21:36:06.034Z,3.83
2022-08-07T21:39:46.507Z,4.70
2022-08-07T21:42:37.459Z,4.35
2022-08-07T21:45:01.348Z,4.10
2022-08-07T21:48:29.092Z,4.28
2022-08-07T21:51:19.465Z,4.43
2022-08-07T21:53:54.008Z,5.25
2022-08-07T21:56:57.967Z,4.47
2022-08-07T22:00:04.603Z,4.50
2022-08-07T22:02:44.853Z,4.30
2022-08-07T22:05:45.352Z,4.18
2022-08-07T22:08:12.279Z,4.32
2022-08-07T22:10:42.414Z,4.68
2022-08-07T22:13:14.057Z,4.50
2022-08-07T22:16:42.597Z,4.80
2022-08-07T22:18:52.656Z,4.50
2022-08-07T22:21:26.093Z,4.18
2022-08-07T22:24:17.581Z,4.32
2022-08-07T22:26:56.559Z,4.63
2022-08-07T22:29:33.992Z,4.60
2022-08-07T22:32:20.724Z,4.68
2022-08-07T22:34:54.149Z,5.07
2022-08-07T22:38:04.571Z,4.70
2022-08-07T22:40:54.887Z,4.30
2022-08-07T22:43:39.152Z,4.47
2022-08-07T22:47:02.620Z,4.63
2022-08-07T22:49:51.797Z,4.43
2022-08-07T22:52:39.628Z,4.40
2022-08-07T22:55:34.162Z,5.07
2022-08-07T22:58:33.786Z,4.93
2022-08-07T23:01:49.877Z,4.75
2022-08-07T23:04:58.090Z,4.38
2022-08-07T23:08:24.364Z,4.97
2022-08-07T23:11:10.275Z,4.63
2022-08-07T23:14:10.878Z,4.18
2022-08-07T23:17:03.243Z,4.55
2022-08-07T23:20:14.746Z,4.60
2022-08-07T23:23:01.659Z,5.03
2022-08-07T23:25:37.516Z,5.53
2022-08-07T23:28:31.105Z,5.20
2022-08-07T23:32:48.642Z,5.38
2022-08-07T23:35:07.370Z,5.53
2022-08-07T23:38:10.881Z,4.72
2022-08-07T23:40:52.974Z,5.22
2022-08-07T23:43:57.341Z,5.80
2022-08-07T23:47:03.667Z,5.55
2022-08-07T23:49:50.530Z,5.68
2022-08-07T23:53:06.777Z,6.00
2022-08-07T23:55:52.271Z,5.25
2022-08-07T23:58:55.048Z,5.80
